sensor_id;sensor_type;location;lat;lon;timestamp;temperature;humidity
18950;DHT22;9608;49.288;8.130;2023-03-11T00:00:11;2.80;99.90
18950;DHT22;9608;49.288;8.130;2023-03-11T00:02:40;2.70;99.90
18950;DHT22;9608;49.288;8.130;2023-03-11T00:05:08;2.70;99.90
18950;DHT22;9608;49.288;8.130;2023-03-11T00:07:34;2.70;99.90
18950;DHT22;9608;49.288;8.130;2023-03-11T00:10:04;2.70;99.90
18950;DHT22;9608;49.288;8.130;2023-03-11T00:12:30;2.70;99.90
18950;DHT22;9608;49.288;8.130;2023-03-11T00:14:57;2.70;99.90
18950;DHT22;9608;49.288;8.130;2023-03-11T00:17:24;2.70;99.90
18950;DHT22;9608;49.288;8.130;2023-03-11T00:19:51;2.70;99.90
18950;DHT22;9608;49.288;8.130;2023-03-11T00:22:17;2.70;99.90
18950;DHT22;9608;49.288;8.130;2023-03-11T00:24:44;2.70;99.90
18950;DHT22;9608;49.288;8.130;2023-03-11T00:27:12;2.70;99.90
18950;DHT22;9608;49.288;8.130;2023-03-11T00:29:39;2.70;99.90
18950;DHT22;9608;49.288;8.130;2023-03-11T00:32:06;2.60;99.90
18950;DHT22;9608;49.288;8.130;2023-03-11T00:34:32;2.50;99.90
18950;DHT22;9608;49.288;8.130;2023-03-11T00:36:59;2.50;99.90
18950;DHT22;9608;49.288;8.130;2023-03-11T00:39:26;2.40;99.90
18950;DHT22;9608;49.288;8.130;2023-03-11T00:41:52;2.30;99.90
18950;DHT22;9608;49.288;8.130;2023-03-11T00:44:22;2.30;99.90
18950;DHT22;9608;49.288;8.130;2023-03-11T00:46:49;2.30;99.90
18950;DHT22;9608;49.288;8.130;2023-03-11T00:49:17;2.20;99.90
18950;DHT22;9608;49.288;8.130;2023-03-11T00:51:43;2.20;99.90
18950;DHT22;9608;49.288;8.130;2023-03-11T00:54:10;2.20;99.90
18950;DHT22;9608;49.288;8.130;2023-03-11T00:56:37;2.10;99.90
18950;DHT22;9608;49.288;8.130;2023-03-11T00:59:03;2.10;99.90
18950;DHT22;9608;49.288;8.130;2023-03-11T01:01:32;2.10;99.90
18950;DHT22;9608;49.288;8.130;2023-03-11T01:03:58;2.10;99.90
18950;DHT22;9608;49.288;8.130;2023-03-11T01:06:25;2.10;99.90
18950;DHT22;9608;49.288;8.130;2023-03-11T01:08:52;2.10;99.90
18950;DHT22;9608;49.288;8.130;2023-03-11T01:11:19;2.10;99.90
18950;DHT22;9608;49.288;8.130;2023-03-11T01:13:45;2.10;99.90
18950;DHT22;9608;49.288;8.130;2023-03-11T01:16:12;2.10;99.90
18950;DHT22;9608;49.288;8.130;2023-03-11T01:18:40;2.10;99.90
18950;DHT22;9608;49.288;8.130;2023-03-11T01:21:07;2.10;99.90
18950;DHT22;9608;49.288;8.130;2023-03-11T01:23:34;2.10;99.90
18950;DHT22;9608;49.288;8.130;2023-03-11T01:26:00;2.00;99.90
18950;DHT22;9608;49.288;8.130;2023-03-11T01:28:27;2.00;99.90
18950;DHT22;9608;49.288;8.130;2023-03-11T01:30:54;2.00;99.90
18950;DHT22;9608;49.288;8.130;2023-03-11T01:33:21;2.00;99.90
18950;DHT22;9608;49.288;8.130;2023-03-11T01:35:49;1.90;99.90
18950;DHT22;9608;49.288;8.130;2023-03-11T01:38:15;1.90;99.90
18950;DHT22;9608;49.288;8.130;2023-03-11T01:40:44;1.90;99.90
18950;DHT22;9608;49.288;8.130;2023-03-11T01:46:17;1.90;99.90
18950;DHT22;9608;49.288;8.130;2023-03-11T01:48:46;1.90;99.90
18950;DHT22;9608;49.288;8.130;2023-03-11T01:51:17;1.90;99.90
18950;DHT22;9608;49.288;8.130;2023-03-11T01:53:45;1.90;99.90
18950;DHT22;9608;49.288;8.130;2023-03-11T01:56:12;1.90;99.90
18950;DHT22;9608;49.288;8.130;2023-03-11T01:58:43;1.80;99.90
18950;DHT22;9608;49.288;8.130;2023-03-11T02:01:11;1.80;99.90
18950;DHT22;9608;49.288;8.130;2023-03-11T02:03:40;1.80;99.90
18950;DHT22;9608;49.288;8.130;2023-03-11T02:06:09;1.80;99.90
18950;DHT22;9608;49.288;8.130;2023-03-11T02:08:39;1.80;99.90
18950;DHT22;9608;49.288;8.130;2023-03-11T02:11:08;1.80;99.90
18950;DHT22;9608;49.288;8.130;2023-03-11T02:13:38;1.70;99.90
18950;DHT22;9608;49.288;8.130;2023-03-11T02:16:06;1.70;99.90
18950;DHT22;9608;49.288;8.130;2023-03-11T02:18:33;1.70;99.90
18950;DHT22;9608;49.288;8.130;2023-03-11T02:21:07;1.70;99.90
18950;DHT22;9608;49.288;8.130;2023-03-11T02:23:46;1.70;99.90
18950;DHT22;9608;49.288;8.130;2023-03-11T02:26:17;1.60;99.90
18950;DHT22;9608;49.288;8.130;2023-03-11T02:28:47;1.60;99.90
18950;DHT22;9608;49.288;8.130;2023-03-11T02:31:14;1.60;99.90
18950;DHT22;9608;49.288;8.130;2023-03-11T02:33:41;1.60;99.90
18950;DHT22;9608;49.288;8.130;2023-03-11T02:36:32;1.70;99.90
18950;DHT22;9608;49.288;8.130;2023-03-11T02:38:59;1.70;99.90
18950;DHT22;9608;49.288;8.130;2023-03-11T02:41:26;1.70;99.90
18950;DHT22;9608;49.288;8.130;2023-03-11T02:43:55;1.60;99.90
18950;DHT22;9608;49.288;8.130;2023-03-11T02:46:22;1.60;99.90
18950;DHT22;9608;49.288;8.130;2023-03-11T02:48:51;1.60;99.90
18950;DHT22;9608;49.288;8.130;2023-03-11T02:51:18;1.60;99.90
18950;DHT22;9608;49.288;8.130;2023-03-11T02:53:47;1.50;99.90
18950;DHT22;9608;49.288;8.130;2023-03-11T02:56:14;1.40;99.90
18950;DHT22;9608;49.288;8.130;2023-03-11T02:58:41;1.40;99.90
18950;DHT22;9608;49.288;8.130;2023-03-11T03:01:09;1.40;99.90
18950;DHT22;9608;49.288;8.130;2023-03-11T03:03:36;1.30;99.90
18950;DHT22;9608;49.288;8.130;2023-03-11T03:06:03;1.30;99.90
18950;DHT22;9608;49.288;8.130;2023-03-11T03:08:30;1.30;99.90
18950;DHT22;9608;49.288;8.130;2023-03-11T03:10:57;1.20;99.90
18950;DHT22;9608;49.288;8.130;2023-03-11T03:13:24;1.20;99.90
18950;DHT22;9608;49.288;8.130;2023-03-11T03:15:51;1.20;99.90
18950;DHT22;9608;49.288;8.130;2023-03-11T03:18:19;1.20;99.90
18950;DHT22;9608;49.288;8.130;2023-03-11T03:20:46;1.20;99.90
18950;DHT22;9608;49.288;8.130;2023-03-11T03:23:12;1.20;99.90
18950;DHT22;9608;49.288;8.130;2023-03-11T03:25:41;1.10;99.90
18950;DHT22;9608;49.288;8.130;2023-03-11T03:28:09;1.10;99.90
18950;DHT22;9608;49.288;8.130;2023-03-11T03:30:36;1.10;99.90
18950;DHT22;9608;49.288;8.130;2023-03-11T03:33:03;1.10;99.90
18950;DHT22;9608;49.288;8.130;2023-03-11T03:35:31;1.10;99.90
18950;DHT22;9608;49.288;8.130;2023-03-11T03:37:59;1.10;99.90
18950;DHT22;9608;49.288;8.130;2023-03-11T03:40:26;1.10;99.90
18950;DHT22;9608;49.288;8.130;2023-03-11T03:42:53;1.10;99.90
18950;DHT22;9608;49.288;8.130;2023-03-11T03:45:19;1.20;99.90
18950;DHT22;9608;49.288;8.130;2023-03-11T03:47:46;1.20;99.90
18950;DHT22;9608;49.288;8.130;2023-03-11T03:50:13;1.10;99.90
18950;DHT22;9608;49.288;8.130;2023-03-11T03:52:41;1.20;99.90
18950;DHT22;9608;49.288;8.130;2023-03-11T03:55:08;1.20;99.90
18950;DHT22;9608;49.288;8.130;2023-03-11T03:57:35;1.20;99.90
18950;DHT22;9608;49.288;8.130;2023-03-11T04:00:03;1.20;99.90
18950;DHT22;9608;49.288;8.130;2023-03-11T04:02:30;1.30;99.90
18950;DHT22;9608;49.288;8.130;2023-03-11T04:04:56;1.30;99.90
18950;DHT22;9608;49.288;8.130;2023-03-11T04:07:23;1.30;99.90
18950;DHT22;9608;49.288;8.130;2023-03-11T04:09:51;1.30;99.90
18950;DHT22;9608;49.288;8.130;2023-03-11T04:12:18;1.30;99.90
18950;DHT22;9608;49.288;8.130;2023-03-11T04:14:45;1.30;99.90
18950;DHT22;9608;49.288;8.130;2023-03-11T04:17:12;1.20;99.90
18950;DHT22;9608;49.288;8.130;2023-03-11T04:19:38;1.20;99.90
18950;DHT22;9608;49.288;8.130;2023-03-11T04:22:05;1.10;99.90
18950;DHT22;9608;49.288;8.130;2023-03-11T04:24:32;1.10;99.90
18950;DHT22;9608;49.288;8.130;2023-03-11T04:27:00;1.00;99.90
18950;DHT22;9608;49.288;8.130;2023-03-11T04:29:27;1.00;99.90
18950;DHT22;9608;49.288;8.130;2023-03-11T04:31:54;1.00;99.90
18950;DHT22;9608;49.288;8.130;2023-03-11T04:34:21;0.90;99.90
18950;DHT22;9608;49.288;8.130;2023-03-11T04:36:50;0.90;99.90
18950;DHT22;9608;49.288;8.130;2023-03-11T04:39:17;0.90;99.90
18950;DHT22;9608;49.288;8.130;2023-03-11T04:41:44;0.90;99.90
18950;DHT22;9608;49.288;8.130;2023-03-11T04:44:12;0.90;99.90
18950;DHT22;9608;49.288;8.130;2023-03-11T04:46:39;0.90;99.90
18950;DHT22;9608;49.288;8.130;2023-03-11T04:49:06;0.90;99.90
18950;DHT22;9608;49.288;8.130;2023-03-11T04:51:32;0.80;99.90
18950;DHT22;9608;49.288;8.130;2023-03-11T04:53:59;0.80;99.90
18950;DHT22;9608;49.288;8.130;2023-03-11T04:56:26;0.80;99.90
18950;DHT22;9608;49.288;8.130;2023-03-11T04:58:52;0.80;99.90
18950;DHT22;9608;49.288;8.130;2023-03-11T05:01:20;0.80;99.90
18950;DHT22;9608;49.288;8.130;2023-03-11T05:03:47;0.80;99.90
18950;DHT22;9608;49.288;8.130;2023-03-11T05:06:14;0.80;99.90
18950;DHT22;9608;49.288;8.130;2023-03-11T05:08:40;0.80;99.90
18950;DHT22;9608;49.288;8.130;2023-03-11T05:11:07;0.80;99.90
18950;DHT22;9608;49.288;8.130;2023-03-11T05:13:34;0.80;99.90
18950;DHT22;9608;49.288;8.130;2023-03-11T05:16:01;0.70;99.90
18950;DHT22;9608;49.288;8.130;2023-03-11T05:18:29;0.70;99.90
18950;DHT22;9608;49.288;8.130;2023-03-11T05:20:57;0.70;99.90
18950;DHT22;9608;49.288;8.130;2023-03-11T05:23:23;0.70;99.90
18950;DHT22;9608;49.288;8.130;2023-03-11T05:25:50;0.70;99.90
18950;DHT22;9608;49.288;8.130;2023-03-11T05:28:17;0.70;99.90
18950;DHT22;9608;49.288;8.130;2023-03-11T05:30:44;0.70;99.90
18950;DHT22;9608;49.288;8.130;2023-03-11T05:33:10;0.70;99.90
18950;DHT22;9608;49.288;8.130;2023-03-11T05:35:38;0.70;99.90
18950;DHT22;9608;49.288;8.130;2023-03-11T05:38:05;0.60;99.90
18950;DHT22;9608;49.288;8.130;2023-03-11T05:40:32;0.60;99.90
18950;DHT22;9608;49.288;8.130;2023-03-11T05:42:58;0.50;99.90
18950;DHT22;9608;49.288;8.130;2023-03-11T05:45:25;0.50;99.90
18950;DHT22;9608;49.288;8.130;2023-03-11T05:47:52;0.50;99.90
18950;DHT22;9608;49.288;8.130;2023-03-11T05:50:19;0.50;99.90
18950;DHT22;9608;49.288;8.130;2023-03-11T05:52:47;0.50;99.90
18950;DHT22;9608;49.288;8.130;2023-03-11T05:55:13;0.50;99.90
18950;DHT22;9608;49.288;8.130;2023-03-11T05:57:40;0.50;99.90
18950;DHT22;9608;49.288;8.130;2023-03-11T06:00:08;0.50;99.90
18950;DHT22;9608;49.288;8.130;2023-03-11T06:02:37;0.50;99.90
18950;DHT22;9608;49.288;8.130;2023-03-11T06:05:05;0.50;99.90
18950;DHT22;9608;49.288;8.130;2023-03-11T06:07:33;0.40;99.90
18950;DHT22;9608;49.288;8.130;2023-03-11T06:10:01;0.40;99.90
18950;DHT22;9608;49.288;8.130;2023-03-11T06:12:28;0.50;99.90
18950;DHT22;9608;49.288;8.130;2023-03-11T06:14:55;0.50;99.90
18950;DHT22;9608;49.288;8.130;2023-03-11T06:17:21;0.50;99.90
18950;DHT22;9608;49.288;8.130;2023-03-11T06:19:48;0.50;99.90
18950;DHT22;9608;49.288;8.130;2023-03-11T06:22:15;0.60;99.90
18950;DHT22;9608;49.288;8.130;2023-03-11T06:24:41;0.60;99.90
18950;DHT22;9608;49.288;8.130;2023-03-11T06:27:09;0.70;99.90
18950;DHT22;9608;49.288;8.130;2023-03-11T06:29:36;0.80;99.90
18950;DHT22;9608;49.288;8.130;2023-03-11T06:32:03;0.90;99.90
18950;DHT22;9608;49.288;8.130;2023-03-11T06:34:30;1.00;99.90
18950;DHT22;9608;49.288;8.130;2023-03-11T06:36:57;1.00;99.90
18950;DHT22;9608;49.288;8.130;2023-03-11T06:39:25;1.10;99.90
18950;DHT22;9608;49.288;8.130;2023-03-11T06:41:52;1.20;99.90
18950;DHT22;9608;49.288;8.130;2023-03-11T06:44:20;1.30;99.90
18950;DHT22;9608;49.288;8.130;2023-03-11T06:46:47;1.30;99.90
18950;DHT22;9608;49.288;8.130;2023-03-11T06:49:13;1.30;99.90
18950;DHT22;9608;49.288;8.130;2023-03-11T06:51:40;1.30;99.90
18950;DHT22;9608;49.288;8.130;2023-03-11T06:54:08;1.30;99.90
18950;DHT22;9608;49.288;8.130;2023-03-11T06:56:35;1.30;99.90
18950;DHT22;9608;49.288;8.130;2023-03-11T06:59:02;1.30;99.90
18950;DHT22;9608;49.288;8.130;2023-03-11T07:01:30;1.30;99.90
18950;DHT22;9608;49.288;8.130;2023-03-11T07:03:56;1.30;99.90
18950;DHT22;9608;49.288;8.130;2023-03-11T07:06:25;1.40;99.90
18950;DHT22;9608;49.288;8.130;2023-03-11T07:08:52;1.50;99.90
18950;DHT22;9608;49.288;8.130;2023-03-11T07:11:20;1.60;99.90
18950;DHT22;9608;49.288;8.130;2023-03-11T07:13:47;1.70;99.90
18950;DHT22;9608;49.288;8.130;2023-03-11T07:16:16;1.80;99.90
18950;DHT22;9608;49.288;8.130;2023-03-11T07:18:45;1.80;99.90
18950;DHT22;9608;49.288;8.130;2023-03-11T07:21:15;1.90;99.90
18950;DHT22;9608;49.288;8.130;2023-03-11T07:23:43;2.00;99.90
18950;DHT22;9608;49.288;8.130;2023-03-11T07:26:10;2.00;99.90
18950;DHT22;9608;49.288;8.130;2023-03-11T07:28:38;2.20;99.90
18950;DHT22;9608;49.288;8.130;2023-03-11T07:31:06;2.20;99.90
18950;DHT22;9608;49.288;8.130;2023-03-11T07:33:33;2.30;99.90
18950;DHT22;9608;49.288;8.130;2023-03-11T07:36:06;2.30;99.90
18950;DHT22;9608;49.288;8.130;2023-03-11T07:38:33;2.30;99.90
18950;DHT22;9608;49.288;8.130;2023-03-11T07:40:59;2.30;99.90
18950;DHT22;9608;49.288;8.130;2023-03-11T07:43:26;2.50;99.90
18950;DHT22;9608;49.288;8.130;2023-03-11T07:46:02;2.50;99.90
18950;DHT22;9608;49.288;8.130;2023-03-11T07:48:29;2.60;99.90
18950;DHT22;9608;49.288;8.130;2023-03-11T07:51:00;2.70;99.90
18950;DHT22;9608;49.288;8.130;2023-03-11T07:53:28;2.80;99.90
18950;DHT22;9608;49.288;8.130;2023-03-11T07:55:55;2.90;99.90
18950;DHT22;9608;49.288;8.130;2023-03-11T07:58:22;2.90;99.90
18950;DHT22;9608;49.288;8.130;2023-03-11T08:00:48;3.00;99.90
18950;DHT22;9608;49.288;8.130;2023-03-11T08:03:15;3.00;99.90
18950;DHT22;9608;49.288;8.130;2023-03-11T08:05:42;3.00;99.90
18950;DHT22;9608;49.288;8.130;2023-03-11T08:08:09;3.10;99.90
18950;DHT22;9608;49.288;8.130;2023-03-11T08:10:37;3.20;99.90
18950;DHT22;9608;49.288;8.130;2023-03-11T08:13:04;3.30;99.90
18950;DHT22;9608;49.288;8.130;2023-03-11T08:15:31;3.40;99.90
18950;DHT22;9608;49.288;8.130;2023-03-11T08:17:57;3.40;99.90
18950;DHT22;9608;49.288;8.130;2023-03-11T08:20:24;3.40;99.90
18950;DHT22;9608;49.288;8.130;2023-03-11T08:22:51;3.50;99.90
18950;DHT22;9608;49.288;8.130;2023-03-11T08:25:17;3.50;99.90
18950;DHT22;9608;49.288;8.130;2023-03-11T08:27:45;3.50;99.90
18950;DHT22;9608;49.288;8.130;2023-03-11T08:30:13;3.50;99.90
18950;DHT22;9608;49.288;8.130;2023-03-11T08:32:40;3.50;99.90
18950;DHT22;9608;49.288;8.130;2023-03-11T08:35:07;3.50;99.90
18950;DHT22;9608;49.288;8.130;2023-03-11T08:37:33;3.50;99.90
18950;DHT22;9608;49.288;8.130;2023-03-11T08:40:00;3.60;99.90
18950;DHT22;9608;49.288;8.130;2023-03-11T08:42:27;3.70;99.90
18950;DHT22;9608;49.288;8.130;2023-03-11T08:44:55;3.80;99.90
18950;DHT22;9608;49.288;8.130;2023-03-11T08:47:21;3.80;99.90
18950;DHT22;9608;49.288;8.130;2023-03-11T08:49:48;3.90;99.90
18950;DHT22;9608;49.288;8.130;2023-03-11T08:52:15;4.00;99.90
18950;DHT22;9608;49.288;8.130;2023-03-11T08:54:41;4.20;99.90
18950;DHT22;9608;49.288;8.130;2023-03-11T08:57:08;4.30;99.90
18950;DHT22;9608;49.288;8.130;2023-03-11T08:59:36;4.40;99.90
18950;DHT22;9608;49.288;8.130;2023-03-11T09:02:04;4.40;99.90
18950;DHT22;9608;49.288;8.130;2023-03-11T09:04:30;4.40;99.90
18950;DHT22;9608;49.288;8.130;2023-03-11T09:06:57;4.30;99.90
18950;DHT22;9608;49.288;8.130;2023-03-11T09:09:24;4.20;99.90
18950;DHT22;9608;49.288;8.130;2023-03-11T09:11:50;4.30;99.90
18950;DHT22;9608;49.288;8.130;2023-03-11T09:14:17;4.30;99.90
18950;DHT22;9608;49.288;8.130;2023-03-11T09:16:44;4.30;99.90
18950;DHT22;9608;49.288;8.130;2023-03-11T09:19:12;4.40;99.90
18950;DHT22;9608;49.288;8.130;2023-03-11T09:21:39;4.50;99.90
18950;DHT22;9608;49.288;8.130;2023-03-11T09:24:06;4.70;99.90
18950;DHT22;9608;49.288;8.130;2023-03-11T09:26:32;4.80;99.90
18950;DHT22;9608;49.288;8.130;2023-03-11T09:28:59;4.90;99.90
18950;DHT22;9608;49.288;8.130;2023-03-11T09:31:26;4.90;99.90
18950;DHT22;9608;49.288;8.130;2023-03-11T09:33:52;4.80;99.90
18950;DHT22;9608;49.288;8.130;2023-03-11T09:36:22;4.80;99.90
18950;DHT22;9608;49.288;8.130;2023-03-11T09:38:49;5.20;99.90
18950;DHT22;9608;49.288;8.130;2023-03-11T09:41:25;5.30;99.90
18950;DHT22;9608;49.288;8.130;2023-03-11T09:44:08;5.40;99.90
18950;DHT22;9608;49.288;8.130;2023-03-11T09:46:52;5.50;99.90
18950;DHT22;9608;49.288;8.130;2023-03-11T09:49:30;5.60;99.90
18950;DHT22;9608;49.288;8.130;2023-03-11T09:52:08;5.80;99.90
18950;DHT22;9608;49.288;8.130;2023-03-11T09:54:37;6.20;99.90
18950;DHT22;9608;49.288;8.130;2023-03-11T09:57:05;5.60;99.90
18950;DHT22;9608;49.288;8.130;2023-03-11T09:59:36;5.70;99.90
18950;DHT22;9608;49.288;8.130;2023-03-11T10:02:04;5.80;99.90
18950;DHT22;9608;49.288;8.130;2023-03-11T10:04:35;6.00;99.90
18950;DHT22;9608;49.288;8.130;2023-03-11T10:07:11;6.10;99.90
18950;DHT22;9608;49.288;8.130;2023-03-11T10:09:42;6.30;99.90
18950;DHT22;9608;49.288;8.130;2023-03-11T10:12:19;6.10;99.90
18950;DHT22;9608;49.288;8.130;2023-03-11T10:15:04;6.30;99.90
18950;DHT22;9608;49.288;8.130;2023-03-11T10:17:51;6.40;99.90
18950;DHT22;9608;49.288;8.130;2023-03-11T10:20:21;6.30;99.90
18950;DHT22;9608;49.288;8.130;2023-03-11T10:23:01;6.00;99.90
18950;DHT22;9608;49.288;8.130;2023-03-11T10:25:41;5.90;99.90
18950;DHT22;9608;49.288;8.130;2023-03-11T10:28:14;6.30;99.90
18950;DHT22;9608;49.288;8.130;2023-03-11T10:30:46;6.30;99.90
18950;DHT22;9608;49.288;8.130;2023-03-11T10:33:20;6.40;99.90
18950;DHT22;9608;49.288;8.130;2023-03-11T10:35:51;6.80;99.90
18950;DHT22;9608;49.288;8.130;2023-03-11T10:38:23;7.10;99.90
18950;DHT22;9608;49.288;8.130;2023-03-11T10:40:53;7.60;99.90
18950;DHT22;9608;49.288;8.130;2023-03-11T10:43:24;7.90;99.90
18950;DHT22;9608;49.288;8.130;2023-03-11T10:45:53;8.10;98.80
18950;DHT22;9608;49.288;8.130;2023-03-11T10:48:21;7.60;99.90
18950;DHT22;9608;49.288;8.130;2023-03-11T10:50:56;7.40;98.20
18950;DHT22;9608;49.288;8.130;2023-03-11T10:53:29;7.40;98.90
18950;DHT22;9608;49.288;8.130;2023-03-11T10:55:57;7.20;98.70
18950;DHT22;9608;49.288;8.130;2023-03-11T10:58:26;6.90;99.30
18950;DHT22;9608;49.288;8.130;2023-03-11T11:01:01;6.80;99.60
18950;DHT22;9608;49.288;8.130;2023-03-11T11:03:28;6.90;99.00
18950;DHT22;9608;49.288;8.130;2023-03-11T11:05:58;7.00;99.00
18950;DHT22;9608;49.288;8.130;2023-03-11T11:08:25;7.10;98.90
18950;DHT22;9608;49.288;8.130;2023-03-11T11:10:54;7.30;98.30
18950;DHT22;9608;49.288;8.130;2023-03-11T11:13:22;7.40;98.00
18950;DHT22;9608;49.288;8.130;2023-03-11T11:15:55;7.40;97.90
18950;DHT22;9608;49.288;8.130;2023-03-11T11:18:24;7.30;98.40
18950;DHT22;9608;49.288;8.130;2023-03-11T11:21:00;7.40;98.50
18950;DHT22;9608;49.288;8.130;2023-03-11T11:23:32;7.70;98.70
18950;DHT22;9608;49.288;8.130;2023-03-11T11:26:03;7.90;98.50
18950;DHT22;9608;49.288;8.130;2023-03-11T11:28:31;8.20;99.90
18950;DHT22;9608;49.288;8.130;2023-03-11T11:30:59;8.40;98.80
18950;DHT22;9608;49.288;8.130;2023-03-11T11:33:28;8.60;99.30
18950;DHT22;9608;49.288;8.130;2023-03-11T11:35:56;8.80;98.90
18950;DHT22;9608;49.288;8.130;2023-03-11T11:38:26;8.50;98.70
18950;DHT22;9608;49.288;8.130;2023-03-11T11:40:55;8.30;99.10
18950;DHT22;9608;49.288;8.130;2023-03-11T11:43:34;8.10;98.50
18950;DHT22;9608;49.288;8.130;2023-03-11T11:46:05;8.10;98.90
18950;DHT22;9608;49.288;8.130;2023-03-11T11:48:46;8.10;99.50
18950;DHT22;9608;49.288;8.130;2023-03-11T11:51:19;8.20;99.30
18950;DHT22;9608;49.288;8.130;2023-03-11T11:53:50;8.20;99.40
18950;DHT22;9608;49.288;8.130;2023-03-11T11:56:17;8.40;99.90
18950;DHT22;9608;49.288;8.130;2023-03-11T11:58:46;8.60;98.00
18950;DHT22;9608;49.288;8.130;2023-03-11T12:01:14;8.50;99.10
18950;DHT22;9608;49.288;8.130;2023-03-11T12:06:51;8.80;97.60
18950;DHT22;9608;49.288;8.130;2023-03-11T12:09:23;8.70;99.10
18950;DHT22;9608;49.288;8.130;2023-03-11T12:11:57;8.30;99.30
18950;DHT22;9608;49.288;8.130;2023-03-11T12:14:29;8.10;98.60
18950;DHT22;9608;49.288;8.130;2023-03-11T12:17:00;7.60;99.90
18950;DHT22;9608;49.288;8.130;2023-03-11T12:19:33;7.70;99.90
18950;DHT22;9608;49.288;8.130;2023-03-11T12:22:30;7.80;99.50
18950;DHT22;9608;49.288;8.130;2023-03-11T12:25:12;7.90;99.20
18950;DHT22;9608;49.288;8.130;2023-03-11T12:27:48;7.70;99.90
18950;DHT22;9608;49.288;8.130;2023-03-11T12:30:21;7.60;99.30
18950;DHT22;9608;49.288;8.130;2023-03-11T12:32:54;7.40;98.60
18950;DHT22;9608;49.288;8.130;2023-03-11T12:35:23;7.30;98.90
18950;DHT22;9608;49.288;8.130;2023-03-11T12:37:56;7.30;99.10
18950;DHT22;9608;49.288;8.130;2023-03-11T12:40:50;7.50;99.70
18950;DHT22;9608;49.288;8.130;2023-03-11T12:43:24;7.60;98.70
18950;DHT22;9608;49.288;8.130;2023-03-11T12:45:56;7.80;99.90
18950;DHT22;9608;49.288;8.130;2023-03-11T12:48:34;7.90;99.90
18950;DHT22;9608;49.288;8.130;2023-03-11T12:51:01;7.90;99.10
18950;DHT22;9608;49.288;8.130;2023-03-11T12:53:44;8.00;99.10
18950;DHT22;9608;49.288;8.130;2023-03-11T12:56:22;8.00;98.30
18950;DHT22;9608;49.288;8.130;2023-03-11T12:59:20;8.10;98.10
18950;DHT22;9608;49.288;8.130;2023-03-11T13:02:03;7.90;97.10
18950;DHT22;9608;49.288;8.130;2023-03-11T13:04:53;7.90;98.40
18950;DHT22;9608;49.288;8.130;2023-03-11T13:07:45;8.20;99.20
18950;DHT22;9608;49.288;8.130;2023-03-11T13:10:16;8.30;98.90
18950;DHT22;9608;49.288;8.130;2023-03-11T13:12:45;8.30;97.40
18950;DHT22;9608;49.288;8.130;2023-03-11T13:15:34;8.40;98.40
18950;DHT22;9608;49.288;8.130;2023-03-11T13:18:14;8.40;97.40
18950;DHT22;9608;49.288;8.130;2023-03-11T13:20:45;8.30;97.50
18950;DHT22;9608;49.288;8.130;2023-03-11T13:23:22;8.60;98.90
18950;DHT22;9608;49.288;8.130;2023-03-11T13:26:28;8.80;99.10
18950;DHT22;9608;49.288;8.130;2023-03-11T13:29:27;9.10;98.80
18950;DHT22;9608;49.288;8.130;2023-03-11T13:32:24;9.50;98.50
18950;DHT22;9608;49.288;8.130;2023-03-11T13:35:00;10.00;95.40
18950;DHT22;9608;49.288;8.130;2023-03-11T13:37:41;9.90;94.00
18950;DHT22;9608;49.288;8.130;2023-03-11T13:40:14;10.00;94.40
18950;DHT22;9608;49.288;8.130;2023-03-11T13:42:45;10.00;93.50
18950;DHT22;9608;49.288;8.130;2023-03-11T13:45:24;9.90;93.60
18950;DHT22;9608;49.288;8.130;2023-03-11T13:47:54;10.00;94.10
18950;DHT22;9608;49.288;8.130;2023-03-11T13:50:28;10.20;93.40
18950;DHT22;9608;49.288;8.130;2023-03-11T13:52:58;9.30;94.60
18950;DHT22;9608;49.288;8.130;2023-03-11T13:55:30;8.60;97.30
18950;DHT22;9608;49.288;8.130;2023-03-11T13:57:57;8.30;96.70
18950;DHT22;9608;49.288;8.130;2023-03-11T14:00:26;8.40;97.90
18950;DHT22;9608;49.288;8.130;2023-03-11T14:02:55;8.20;98.60
18950;DHT22;9608;49.288;8.130;2023-03-11T14:05:25;8.50;98.30
18950;DHT22;9608;49.288;8.130;2023-03-11T14:07:52;8.50;97.00
18950;DHT22;9608;49.288;8.130;2023-03-11T14:10:27;8.20;98.20
18950;DHT22;9608;49.288;8.130;2023-03-11T14:13:15;8.60;97.60
18950;DHT22;9608;49.288;8.130;2023-03-11T14:15:46;8.70;97.50
18950;DHT22;9608;49.288;8.130;2023-03-11T14:21:14;8.60;96.80
18950;DHT22;9608;49.288;8.130;2023-03-11T14:23:42;8.30;96.50
18950;DHT22;9608;49.288;8.130;2023-03-11T14:26:13;8.30;98.50
18950;DHT22;9608;49.288;8.130;2023-03-11T14:28:43;8.60;99.50
18950;DHT22;9608;49.288;8.130;2023-03-11T14:31:22;8.70;98.40
18950;DHT22;9608;49.288;8.130;2023-03-11T14:33:57;8.60;99.40
18950;DHT22;9608;49.288;8.130;2023-03-11T14:36:30;8.80;98.20
18950;DHT22;9608;49.288;8.130;2023-03-11T14:38:58;8.30;97.20
18950;DHT22;9608;49.288;8.130;2023-03-11T14:41:24;8.10;97.50
18950;DHT22;9608;49.288;8.130;2023-03-11T14:43:52;7.90;99.00
18950;DHT22;9608;49.288;8.130;2023-03-11T14:46:22;7.60;99.90
18950;DHT22;9608;49.288;8.130;2023-03-11T14:48:51;7.30;99.90
18950;DHT22;9608;49.288;8.130;2023-03-11T14:51:24;7.00;99.90
18950;DHT22;9608;49.288;8.130;2023-03-11T14:54:02;6.80;99.90
18950;DHT22;9608;49.288;8.130;2023-03-11T14:56:31;6.80;99.90
18950;DHT22;9608;49.288;8.130;2023-03-11T14:59:04;6.60;99.90
18950;DHT22;9608;49.288;8.130;2023-03-11T15:01:33;6.30;99.90
18950;DHT22;9608;49.288;8.130;2023-03-11T15:04:06;6.10;99.90
18950;DHT22;9608;49.288;8.130;2023-03-11T15:06:37;6.00;99.90
18950;DHT22;9608;49.288;8.130;2023-03-11T15:09:09;6.10;99.90
18950;DHT22;9608;49.288;8.130;2023-03-11T15:11:47;6.10;99.90
18950;DHT22;9608;49.288;8.130;2023-03-11T15:14:19;6.10;99.90
18950;DHT22;9608;49.288;8.130;2023-03-11T15:16:46;6.10;99.90
18950;DHT22;9608;49.288;8.130;2023-03-11T15:19:29;6.20;99.90
18950;DHT22;9608;49.288;8.130;2023-03-11T15:22:05;6.10;99.90
18950;DHT22;9608;49.288;8.130;2023-03-11T15:24:33;5.90;99.90
18950;DHT22;9608;49.288;8.130;2023-03-11T15:27:02;5.70;99.90
18950;DHT22;9608;49.288;8.130;2023-03-11T15:29:31;5.60;99.90
18950;DHT22;9608;49.288;8.130;2023-03-11T15:31:58;5.70;99.90
18950;DHT22;9608;49.288;8.130;2023-03-11T15:34:30;5.60;99.90
18950;DHT22;9608;49.288;8.130;2023-03-11T15:37:18;5.60;99.90
18950;DHT22;9608;49.288;8.130;2023-03-11T15:39:48;5.50;99.90
18950;DHT22;9608;49.288;8.130;2023-03-11T15:42:21;5.60;99.90
18950;DHT22;9608;49.288;8.130;2023-03-11T15:45:08;5.60;99.90
18950;DHT22;9608;49.288;8.130;2023-03-11T15:47:37;5.40;99.90
18950;DHT22;9608;49.288;8.130;2023-03-11T15:50:25;5.50;99.90
18950;DHT22;9608;49.288;8.130;2023-03-11T15:52:54;5.70;99.90
18950;DHT22;9608;49.288;8.130;2023-03-11T15:55:24;5.50;99.90
18950;DHT22;9608;49.288;8.130;2023-03-11T15:57:55;5.50;99.90
18950;DHT22;9608;49.288;8.130;2023-03-11T16:00:23;5.60;99.90
18950;DHT22;9608;49.288;8.130;2023-03-11T16:02:50;5.70;99.90
18950;DHT22;9608;49.288;8.130;2023-03-11T16:05:21;5.70;99.90
18950;DHT22;9608;49.288;8.130;2023-03-11T16:07:48;5.40;99.90
18950;DHT22;9608;49.288;8.130;2023-03-11T16:10:18;5.30;99.90
18950;DHT22;9608;49.288;8.130;2023-03-11T16:12:46;5.40;99.90
18950;DHT22;9608;49.288;8.130;2023-03-11T16:15:22;5.30;99.90
18950;DHT22;9608;49.288;8.130;2023-03-11T16:17:51;5.20;99.90
18950;DHT22;9608;49.288;8.130;2023-03-11T16:20:18;5.10;99.90
18950;DHT22;9608;49.288;8.130;2023-03-11T16:22:47;5.00;99.90
18950;DHT22;9608;49.288;8.130;2023-03-11T16:25:20;4.80;99.90
18950;DHT22;9608;49.288;8.130;2023-03-11T16:27:51;4.70;99.90